Time;durP1;ratioP1;P1;durP2;ratioP2;P2;SDS_P1;SDS_P2;PMS_P1;PMS_P2;Temp;Humidity;BMP_temperature;BMP_pressure;BME280_temperature;BME280_humidity;BME280_pressure;Samples;Min_cycle;Max_cycle;Signal;HPM_P1;HPM_P2
2021/12/26 00:02:07;;;;;;;43.10;19.10;;;;;;;-8.71;79.76;100256.45;87786;1287;82811;-68
2021/12/26 00:04:16;;;;;;;42.20;17.40;;;;;;;-8.69;79.92;100256.89;87813;1287;98857;-69
2021/12/26 00:06:30;;;;;;;45.70;18.10;;;;;;;-8.68;79.83;100251.94;87818;1284;87708;-66
2021/12/26 00:08:41;;;;;;;47.50;18.20;;;;;;;-8.70;79.94;100256.05;87759;1288;93821;-67
2021/12/26 00:10:52;;;;;;;43.40;19.50;;;;;;;-8.76;80.00;100255.65;87801;1284;81613;-67
2021/12/26 00:13:05;;;;;;;48.40;20.50;;;;;;;-8.72;80.04;100253.58;87826;1287;83418;-68
2021/12/26 00:15:16;;;;;;;47.10;18.10;;;;;;;-8.76;80.04;100258.63;87820;1284;96364;-67
2021/12/26 00:17:26;;;;;;;35.50;15.70;;;;;;;-8.77;79.98;100262.70;87835;1287;87877;-69
2021/12/26 00:19:36;;;;;;;37.40;16.90;;;;;;;-8.79;79.99;100262.80;87811;1285;93913;-70
2021/12/26 00:21:48;;;;;;;40.50;17.30;;;;;;;-8.77;79.93;100266.54;87785;1285;81276;-70
2021/12/26 00:23:58;;;;;;;43.40;16.50;;;;;;;-8.84;79.96;100267.39;87822;1287;80142;-68
2021/12/26 00:26:08;;;;;;;38.60;16.30;;;;;;;-8.87;80.32;100266.66;87859;1287;97556;-69
2021/12/26 00:28:18;;;;;;;42.20;16.60;;;;;;;-8.86;80.00;100269.91;87812;1289;89296;-69
2021/12/26 00:30:31;;;;;;;44.30;17.70;;;;;;;-8.78;80.38;100264.81;87811;1291;94274;-62
2021/12/26 00:32:41;;;;;;;39.50;17.20;;;;;;;-8.72;79.90;100257.40;87698;1283;78734;-62
2021/12/26 00:34:51;;;;;;;41.50;18.00;;;;;;;-8.74;80.31;100259.23;87794;1284;80516;-68
2021/12/26 00:37:05;;;;;;;41.60;17.70;;;;;;;-8.70;80.29;100259.56;87785;1285;98923;-68
2021/12/26 00:39:16;;;;;;;38.80;16.50;;;;;;;-8.67;80.03;100262.02;87874;1288;88948;-67
2021/12/26 00:41:25;;;;;;;41.70;17.30;;;;;;;-8.63;80.19;100259.22;87801;1285;95084;-69
2021/12/26 00:43:38;;;;;;;43.40;16.50;;;;;;;-8.70;80.08;100263.56;87792;1283;79709;-69
2021/12/26 00:45:49;;;;;;;40.40;16.50;;;;;;;-8.72;79.78;100264.39;87833;1287;82199;-62
2021/12/26 00:47:58;;;;;;;43.10;16.60;;;;;;;-8.75;80.16;100260.52;87786;1285;96024;-62
2021/12/26 00:50:14;;;;;;;45.60;17.20;;;;;;;-8.81;79.89;100263.57;87779;1284;88081;-69
2021/12/26 00:52:24;;;;;;;39.00;16.40;;;;;;;-8.87;80.09;100264.77;87761;1288;95823;-68
2021/12/26 00:54:33;;;;;;;38.70;17.00;;;;;;;-8.90;80.12;100261.92;87807;1286;80722;-68
2021/12/26 00:56:43;;;;;;;39.40;15.70;;;;;;;-8.87;80.22;100264.03;87811;1280;80413;-68
2021/12/26 00:58:52;;;;;;;39.40;15.40;;;;;;;-8.87;80.24;100269.09;87782;1285;98605;-68
2021/12/26 01:01:03;;;;;;;36.20;17.20;;;;;;;-8.89;79.92;100276.52;87730;1287;88291;-68
2021/12/26 01:03:14;;;;;;;39.80;16.20;;;;;;;-8.90;79.92;100275.52;87807;1283;94583;-68
2021/12/26 01:05:25;;;;;;;38.30;16.00;;;;;;;-8.90;80.07;100272.36;87839;1284;79073;-68
2021/12/26 01:07:44;;;;;;;39.70;17.10;;;;;;;-8.93;80.15;100273.05;87813;1284;79147;-70
2021/12/26 01:09:57;;;;;;;35.30;15.90;;;;;;;-8.94;80.05;100262.27;87809;1281;99029;-65
2021/12/26 01:12:13;;;;;;;40.80;18.20;;;;;;;-8.91;79.98;100263.02;87792;1283;87929;-64
2021/12/26 01:14:28;;;;;;;40.10;16.70;;;;;;;-8.86;79.94;100263.64;87819;1290;95569;-69
2021/12/26 01:16:39;;;;;;;37.40;15.60;;;;;;;-8.92;80.09;100267.23;87792;1280;78828;-67
2021/12/26 01:18:51;;;;;;;38.70;16.70;;;;;;;-8.99;80.03;100267.20;87804;1287;82547;-68
2021/12/26 01:21:16;;;;;;;40.40;17.50;;;;;;;-8.90;80.35;100270.11;87807;1284;98675;-64
2021/12/26 01:23:29;;;;;;;42.60;17.20;;;;;;;-8.89;80.05;100270.56;87798;1285;86695;-62
2021/12/26 01:25:39;;;;;;;40.40;17.50;;;;;;;-8.90;80.03;100273.27;87770;1289;92892;-67
2021/12/26 01:27:48;;;;;;;34.40;16.10;;;;;;;-8.86;80.24;100273.58;87724;1284;78628;-67
2021/12/26 01:29:59;;;;;;;42.00;16.20;;;;;;;-8.88;80.30;100271.06;87833;1287;82378;-64
2021/12/26 01:32:10;;;;;;;37.80;15.90;;;;;;;-8.87;80.05;100269.29;87781;1287;98405;-64
2021/12/26 01:34:19;;;;;;;41.20;16.30;;;;;;;-8.90;80.23;100268.38;87689;1287;89610;-69
2021/12/26 01:36:29;;;;;;;44.20;18.60;;;;;;;-8.93;80.03;100267.11;87765;1282;95607;-70
2021/12/26 01:38:39;;;;;;;36.80;15.60;;;;;;;-8.92;80.02;100268.10;87799;1287;79465;-68
2021/12/26 01:40:52;;;;;;;44.30;16.80;;;;;;;-8.91;80.21;100266.70;87820;1283;79296;-66
2021/12/26 01:43:02;;;;;;;;;;;;;;;-8.94;80.11;100264.38;87698;1289;99392;-68
2021/12/26 01:45:12;;;;;;;39.60;16.60;;;;;;;-8.99;80.40;100262.48;87802;1287;89114;-63
2021/12/26 01:47:22;;;;;;;38.80;16.80;;;;;;;-8.99;80.56;100260.59;87775;1283;93899;-63
2021/12/26 01:49:33;;;;;;;38.20;16.50;;;;;;;-9.02;80.23;100260.55;87782;1287;81829;-67
2021/12/26 01:51:45;;;;;;;41.00;17.20;;;;;;;-9.03;80.45;100260.91;87568;1286;82690;-69
2021/12/26 01:53:54;;;;;;;41.20;17.30;;;;;;;-9.05;80.49;100261.02;87545;1285;98026;-68
2021/12/26 01:56:05;;;;;;;39.20;16.80;;;;;;;-9.08;80.24;100261.86;87553;1286;89307;-63
2021/12/26 01:58:18;;;;;;;40.00;17.20;;;;;;;-9.06;80.66;100265.61;87511;1286;93843;-63
2021/12/26 02:00:28;;;;;;;40.80;17.70;;;;;;;-9.08;80.48;100267.25;87502;1286;81438;-68
2021/12/26 02:02:37;;;;;;;44.30;16.90;;;;;;;-9.08;80.38;100272.13;87558;1284;80565;-68
2021/12/26 02:04:46;;;;;;;42.20;17.00;;;;;;;-9.08;80.49;100266.91;87549;1286;98127;-68
2021/12/26 02:06:57;;;;;;;34.90;17.40;;;;;;;-9.10;80.63;100270.14;87528;1281;86251;-68
2021/12/26 02:09:12;;;;;;;38.90;17.00;;;;;;;-9.10;80.71;100269.99;87536;1285;94713;-68
2021/12/26 02:11:21;;;;;;;38.70;16.70;;;;;;;-9.10;80.64;100266.84;87530;1285;79999;-68
2021/12/26 02:13:33;;;;;;;47.00;18.70;;;;;;;-9.09;80.41;100272.04;87501;1285;81025;-68
2021/12/26 02:15:41;;;;;;;39.00;17.30;;;;;;;-9.10;80.53;100274.17;87538;1285;96327;-67
2021/12/26 02:17:51;;;;;;;45.80;17.50;;;;;;;-9.12;80.59;100271.99;87514;1289;87638;-66
2021/12/26 02:20:39;;;;;;;39.00;17.60;;;;;;;-9.18;80.49;100271.04;87504;1284;93505;-61
2021/12/26 02:22:57;;;;;;;38.20;17.20;;;;;;;-9.19;80.47;100271.45;87545;1287;80364;-61
2021/12/26 02:25:25;;;;;;;42.40;17.20;;;;;;;-9.23;80.49;100270.56;87542;1285;81043;-67
2021/12/26 02:27:42;;;;;;;42.10;18.20;;;;;;;-9.20;80.77;100266.60;87518;1284;98157;-66
2021/12/26 02:29:51;;;;;;;38.30;17.00;;;;;;;-9.24;80.75;100270.81;87593;1285;88346;-67
2021/12/26 02:32:01;;;;;;;38.60;17.70;;;;;;;-9.23;80.87;100272.30;87494;1289;95051;-66
2021/12/26 02:34:19;;;;;;;46.20;18.00;;;;;;;-9.24;80.81;100271.69;87518;1286;80178;-67
2021/12/26 02:36:32;;;;;;;45.00;17.20;;;;;;;-9.30;80.97;100275.63;87520;1290;80419;-61
2021/12/26 02:38:41;;;;;;;41.50;17.60;;;;;;;-9.36;80.96;100282.14;87537;1284;96918;-62
2021/12/26 02:40:56;;;;;;;41.30;17.30;;;;;;;-9.31;81.02;100285.40;87500;1290;86308;-67
2021/12/26 02:43:06;;;;;;;43.30;17.50;;;;;;;-9.28;81.01;100284.23;87546;1288;95426;-67
2021/12/26 02:45:17;;;;;;;41.10;17.30;;;;;;;-9.28;80.97;100285.09;87554;1278;80853;-65
2021/12/26 02:47:40;;;;;;;38.60;16.40;;;;;;;-9.27;80.97;100291.16;87538;1290;83107;-61
2021/12/26 02:49:52;;;;;;;35.70;16.20;;;;;;;-9.26;81.16;100290.09;87547;1286;97800;-61
2021/12/26 02:52:06;;;;;;;40.90;17.40;;;;;;;-9.26;81.25;100294.42;87797;1277;86349;-61
2021/12/26 02:54:19;;;;;;;38.10;16.80;;;;;;;-9.26;81.22;100296.52;87789;1287;95664;-66
2021/12/26 02:56:33;;;;;;;37.70;16.20;;;;;;;-9.26;81.16;100294.06;87642;1285;80527;-65
2021/12/26 02:58:44;;;;;;;;;;;;;;;-9.27;81.35;100292.21;87778;1287;81578;-65
2021/12/26 03:00:59;;;;;;;38.20;15.60;;;;;;;-9.28;81.26;100293.66;87806;1283;98274;-62
2021/12/26 03:03:11;;;;;;;39.20;17.00;;;;;;;-9.29;81.27;100290.92;87806;1287;87630;-61
2021/12/26 03:05:25;;;;;;;38.10;18.00;;;;;;;-9.32;81.27;100292.10;87767;1289;95499;-62
2021/12/26 03:07:34;;;;;;;40.10;16.60;;;;;;;-9.34;81.20;100296.02;87733;1285;82284;-62
2021/12/26 03:09:47;;;;;;;37.60;16.40;;;;;;;-9.38;81.29;100296.36;87791;1283;81919;-67
2021/12/26 03:12:00;;;;;;;41.80;15.60;;;;;;;-9.34;81.45;100295.33;87756;1288;97577;-68
2021/12/26 03:14:13;;;;;;;36.40;15.30;;;;;;;-9.33;81.29;100294.77;87730;1284;88238;-68
2021/12/26 03:16:22;;;;;;;38.50;16.10;;;;;;;-9.29;81.21;100293.16;87777;1287;93347;-61
2021/12/26 03:18:34;;;;;;;34.60;15.80;;;;;;;-9.29;81.56;100294.73;87758;1287;79928;-61
2021/12/26 03:20:50;;;;;;;36.80;16.10;;;;;;;-9.28;81.23;100294.87;87770;1283;83678;-62
2021/12/26 03:23:04;;;;;;;43.00;14.50;;;;;;;-9.36;81.26;100296.13;87778;1283;98199;-62
2021/12/26 03:25:20;;;;;;;35.10;16.20;;;;;;;-9.39;81.33;100295.34;87785;1287;86073;-70
2021/12/26 03:27:30;;;;;;;37.50;15.20;;;;;;;-9.36;81.48;100299.41;87792;1287;95233;-70
2021/12/26 03:29:44;;;;;;;35.40;14.90;;;;;;;-9.35;81.51;100303.19;87800;1283;80740;-71
2021/12/26 03:31:56;;;;;;;34.50;14.80;;;;;;;-9.37;81.29;100300.50;87779;1283;81788;-67
2021/12/26 03:34:09;;;;;;;36.30;16.90;;;;;;;-9.38;81.34;100304.55;87757;1279;97027;-67
2021/12/26 03:36:18;;;;;;;36.50;15.90;;;;;;;-9.34;81.32;100304.00;87791;1278;87549;-67
2021/12/26 03:38:30;;;;;;;34.20;14.90;;;;;;;-9.36;81.08;100302.20;87776;1287;94306;-68
2021/12/26 03:40:41;;;;;;;38.10;16.10;;;;;;;-9.39;81.11;100308.09;87798;1281;79051;-61
2021/12/26 03:42:51;;;;;;;40.90;15.60;;;;;;;-9.43;81.20;100306.70;87824;1276;81442;-61
2021/12/26 03:45:00;;;;;;;34.80;15.00;;;;;;;-9.37;81.16;100305.02;87601;1284;99503;-67
2021/12/26 03:47:13;;;;;;;34.50;15.20;;;;;;;-9.41;81.17;100303.15;87780;1286;87489;-67
2021/12/26 03:49:23;;;;;;;51.80;17.60;;;;;;;-9.43;81.32;100302.70;87723;1289;95160;-68
2021/12/26 03:51:35;;;;;;;36.20;16.30;;;;;;;-9.39;81.11;100304.26;87786;1283;81241;-69
2021/12/26 03:53:48;;;;;;;32.50;14.70;;;;;;;-9.37;81.13;100304.51;87807;1287;83631;-68
2021/12/26 03:55:58;;;;;;;38.20;15.90;;;;;;;-9.38;81.08;100300.56;87804;1283;98865;-66
2021/12/26 03:58:07;;;;;;;40.60;16.30;;;;;;;-9.42;81.08;100301.57;87814;1286;88832;-66
2021/12/26 04:00:20;;;;;;;40.80;15.50;;;;;;;-9.46;80.95;100302.63;87793;1283;94988;-66
2021/12/26 04:02:33;;;;;;;35.70;15.70;;;;;;;-9.48;80.98;100307.77;87693;1288;80110;-66
2021/12/26 04:04:45;;;;;;;36.00;14.80;;;;;;;-9.51;81.12;100307.57;87833;1284;81384;-65
2021/12/26 04:06:55;;;;;;;39.60;15.40;;;;;;;-9.55;81.11;100303.75;87788;1283;99620;-66
2021/12/26 04:09:07;;;;;;;34.50;14.40;;;;;;;-9.55;81.18;100307.22;87790;1284;89020;-65
2021/12/26 04:11:18;;;;;;;35.70;14.70;;;;;;;-9.57;81.28;100309.23;87802;1287;95318;-66
2021/12/26 04:13:32;;;;;;;40.50;14.60;;;;;;;-9.56;81.26;100309.72;87772;1287;80447;-68
2021/12/26 04:15:44;;;;;;;38.10;15.90;;;;;;;-9.60;81.20;100310.59;87670;1287;82203;-69
2021/12/26 04:17:57;;;;;;;35.90;14.80;;;;;;;-9.62;81.24;100310.82;87810;1280;100244;-68
2021/12/26 04:20:12;;;;;;;34.80;15.30;;;;;;;-9.64;81.26;100311.42;87798;1287;88749;-62
2021/12/26 04:22:21;;;;;;;38.00;15.30;;;;;;;-9.67;81.34;100310.34;87790;1287;94039;-66
2021/12/26 04:24:32;;;;;;;38.80;16.20;;;;;;;-9.71;81.27;100312.42;87791;1283;80504;-63
2021/12/26 04:26:42;;;;;;;36.00;14.90;;;;;;;-9.70;81.44;100312.57;87799;1283;81061;-62
2021/12/26 04:28:51;;;;;;;38.00;16.00;;;;;;;-9.69;81.28;100315.12;87821;1287;97945;-62
2021/12/26 04:31:00;;;;;;;36.60;16.50;;;;;;;-9.72;81.42;100318.91;87788;1282;88928;-62
2021/12/26 04:33:09;;;;;;;40.20;17.10;;;;;;;-9.70;81.19;100318.50;87803;1284;95386;-60
2021/12/26 04:35:20;;;;;;;36.60;15.30;;;;;;;-9.71;81.32;100317.83;87788;1287;81434;-67
2021/12/26 04:37:33;;;;;;;43.00;17.00;;;;;;;-9.70;81.36;100311.36;87813;1287;82732;-66
2021/12/26 04:39:46;;;;;;;40.80;17.20;;;;;;;-9.71;81.29;100312.77;87851;1283;99480;-64
2021/12/26 04:41:56;;;;;;;41.50;17.30;;;;;;;-9.71;81.56;100313.67;87798;1283;88148;-65
2021/12/26 04:44:09;;;;;;;37.70;15.70;;;;;;;-9.71;81.55;100313.66;87776;1283;93801;-65
2021/12/26 04:46:18;;;;;;;41.80;17.30;;;;;;;-9.70;81.75;100311.70;87778;1288;80106;-64
2021/12/26 04:48:28;;;;;;;37.30;16.50;;;;;;;-9.70;81.76;100309.44;87764;1283;79936;-65
2021/12/26 04:50:37;;;;;;;33.70;16.20;;;;;;;-9.76;81.63;100311.45;87780;1283;97495;-62
2021/12/26 04:52:48;;;;;;;36.30;15.90;;;;;;;-9.77;81.42;100317.59;87802;1287;89450;-62
2021/12/26 04:55:00;;;;;;;39.30;16.10;;;;;;;-9.79;81.70;100317.31;87797;1284;94767;-62
2021/12/26 04:57:11;;;;;;;36.10;15.70;;;;;;;-9.73;81.61;100318.27;87822;1284;81867;-61
2021/12/26 04:59:20;;;;;;;39.00;16.60;;;;;;;-9.73;81.44;100319.50;87778;1284;81293;-67
2021/12/26 05:01:30;;;;;;;41.10;17.80;;;;;;;-9.73;81.59;100320.70;87800;1283;98420;-65
2021/12/26 05:03:41;;;;;;;41.10;17.30;;;;;;;-9.77;81.50;100320.38;87810;1284;87202;-66
2021/12/26 05:05:52;;;;;;;40.70;17.00;;;;;;;-9.75;81.61;100320.09;87779;1276;95225;-67
2021/12/26 05:08:01;;;;;;;35.90;16.70;;;;;;;-9.68;81.48;100322.25;83349;1284;3025440;-66
2021/12/26 05:10:15;;;;;;;40.30;15.70;;;;;;;-9.67;81.48;100322.71;87835;1287;83197;-65
2021/12/26 05:12:28;;;;;;;45.80;17.30;;;;;;;-9.65;81.40;100322.99;87756;1277;100586;-68
2021/12/26 05:14:37;;;;;;;41.50;16.60;;;;;;;-9.62;81.45;100324.05;87785;1284;89311;-66
2021/12/26 05:16:46;;;;;;;39.60;16.20;;;;;;;-9.65;81.24;100321.59;87785;1283;94057;-68
2021/12/26 05:18:56;;;;;;;42.50;17.50;;;;;;;-9.69;81.28;100326.27;87640;1288;82113;-67
2021/12/26 05:21:05;;;;;;;36.80;16.30;;;;;;;-9.71;81.43;100329.66;87837;1287;82825;-63
2021/12/26 05:23:15;;;;;;;40.20;18.70;;;;;;;-9.72;81.09;100324.83;87790;1284;98326;-65
2021/12/26 05:25:26;;;;;;;40.30;16.60;;;;;;;-9.67;81.19;100328.27;87802;1285;87343;-71
2021/12/26 05:27:36;;;;;;;44.20;17.50;;;;;;;-9.62;81.05;100330.00;87794;1284;93861;-71
2021/12/26 05:29:45;;;;;;;42.60;17.10;;;;;;;-9.65;81.20;100325.77;87814;1280;79734;-65
2021/12/26 05:31:55;;;;;;;39.10;17.00;;;;;;;-9.64;81.09;100328.52;87746;1285;82924;-65
2021/12/26 05:34:05;;;;;;;41.80;17.10;;;;;;;-9.67;80.98;100331.98;87779;1287;98613;-66
2021/12/26 05:36:18;;;;;;;48.00;18.40;;;;;;;-9.65;80.97;100334.48;87823;1287;87428;-70
2021/12/26 05:38:28;;;;;;;37.00;17.80;;;;;;;-9.65;80.90;100336.39;87697;1285;95525;-70
2021/12/26 05:40:37;;;;;;;43.70;18.40;;;;;;;-9.67;80.94;100337.89;87829;1283;81878;-65
2021/12/26 05:42:47;;;;;;;43.20;17.90;;;;;;;-9.69;81.00;100336.40;87779;1283;81676;-63
2021/12/26 05:44:57;;;;;;;44.90;19.90;;;;;;;-9.71;81.00;100334.90;87831;1283;100713;-71
2021/12/26 05:47:08;;;;;;;45.20;19.10;;;;;;;-9.66;81.15;100334.68;87792;1283;88251;-71
2021/12/26 05:49:18;;;;;;;38.40;17.50;;;;;;;-9.65;81.21;100338.33;87796;1287;94065;-65
2021/12/26 05:51:27;;;;;;;40.90;18.70;;;;;;;-9.63;80.95;100340.67;87772;1281;80540;-69
2021/12/26 05:53:36;;;;;;;41.00;19.60;;;;;;;-9.62;81.02;100339.42;87809;1289;82111;-65
2021/12/26 05:55:46;;;;;;;39.60;17.80;;;;;;;-9.68;81.14;100337.21;87768;1284;99843;-65
2021/12/26 05:57:55;;;;;;;42.80;18.10;;;;;;;-9.74;80.94;100336.96;87796;1284;88602;-64
2021/12/26 06:00:09;;;;;;;45.80;19.60;;;;;;;-9.76;81.02;100336.72;87772;1283;94281;-69
2021/12/26 06:02:19;;;;;;;40.40;18.10;;;;;;;-9.69;81.01;100337.95;87773;1283;80424;-68
2021/12/26 06:04:29;;;;;;;41.50;17.80;;;;;;;-9.67;80.96;100340.33;87839;1281;80668;-65
2021/12/26 06:06:39;;;;;;;42.30;18.10;;;;;;;-9.64;80.79;100339.29;87778;1284;99721;-64
2021/12/26 06:08:48;;;;;;;45.70;19.40;;;;;;;-9.66;80.68;100345.48;87795;1280;88421;-64
2021/12/26 06:10:58;;;;;;;45.70;18.40;;;;;;;-9.66;80.84;100345.17;87732;1288;94017;-64
2021/12/26 06:13:08;;;;;;;46.60;19.20;;;;;;;-9.65;80.79;100346.66;87782;1282;80994;-65
2021/12/26 06:15:17;;;;;;;45.80;20.80;;;;;;;-9.66;80.85;100350.90;87786;1283;82776;-64
2021/12/26 06:17:26;;;;;;;45.00;20.10;;;;;;;-9.66;80.72;100355.77;87763;1284;100147;-64
2021/12/26 06:19:36;;;;;;;47.10;18.00;;;;;;;-9.67;80.67;100358.45;87823;1287;87618;-71
2021/12/26 06:21:45;;;;;;;45.20;19.00;;;;;;;-9.64;81.01;100361.47;87788;1283;94000;-70
2021/12/26 06:23:55;;;;;;;46.30;20.20;;;;;;;-9.57;80.95;100361.35;87777;1283;80728;-71
2021/12/26 06:26:08;;;;;;;49.60;20.30;;;;;;;-9.45;81.23;100359.23;87544;1283;83763;-65
2021/12/26 06:28:16;;;;;;;;;;;;;;;-9.35;81.47;100363.86;87792;1284;99052;-66
2021/12/26 06:30:26;;;;;;;39.70;19.00;;;;;;;-9.30;81.45;100366.96;87829;1275;87312;-65
2021/12/26 06:32:36;;;;;;;50.20;19.70;;;;;;;-9.22;81.38;100372.00;87640;1288;93903;-64
2021/12/26 06:34:46;;;;;;;46.70;21.20;;;;;;;-9.10;81.38;100374.10;87785;1287;81321;-66
2021/12/26 06:36:56;;;;;;;44.60;19.20;;;;;;;-9.01;81.59;100375.45;87785;1281;80066;-67
2021/12/26 06:39:07;;;;;;;45.30;20.60;;;;;;;-8.88;81.92;100375.25;87802;1283;99331;-69
2021/12/26 06:41:17;;;;;;;50.70;21.10;;;;;;;-8.84;81.75;100379.20;87773;1283;89107;-69
2021/12/26 06:43:30;;;;;;;46.90;20.30;;;;;;;-8.72;81.81;100381.14;87782;1284;94662;-66
2021/12/26 06:45:40;;;;;;;46.80;20.70;;;;;;;-8.65;81.83;100389.34;87826;1283;78611;-66
2021/12/26 06:47:52;;;;;;;46.80;21.00;;;;;;;-8.51;81.96;100391.29;87789;1282;80202;-66
2021/12/26 06:50:06;;;;;;;51.60;21.10;;;;;;;-8.44;81.85;100387.86;87826;1271;97931;-68
2021/12/26 06:52:16;;;;;;;47.50;21.70;;;;;;;-8.40;82.26;100388.90;87815;1283;88688;-69
2021/12/26 06:54:25;;;;;;;50.70;21.90;;;;;;;-8.29;82.38;100391.16;87809;1284;92949;-61
2021/12/26 06:56:35;;;;;;;50.80;22.50;;;;;;;-8.18;82.25;100391.82;87805;1282;78747;-62
2021/12/26 06:58:45;;;;;;;46.90;21.30;;;;;;;-8.12;82.24;100390.68;87809;1287;80948;-61
2021/12/26 07:00:58;;;;;;;53.60;23.40;;;;;;;-8.06;82.28;100395.64;87762;1283;99603;-61
2021/12/26 07:03:08;;;;;;;53.30;22.80;;;;;;;-8.05;82.27;100395.05;87806;1283;87001;-61
2021/12/26 07:05:17;;;;;;;52.40;23.90;;;;;;;-7.97;82.24;100395.71;87798;1280;93662;-68
2021/12/26 07:07:27;;;;;;;53.00;24.00;;;;;;;-7.89;82.33;100400.02;87637;1283;174050;-68
2021/12/26 07:09:39;;;;;;;51.70;21.70;;;;;;;-7.83;82.35;100404.28;87805;1283;83072;-68
2021/12/26 07:11:48;;;;;;;62.80;22.30;;;;;;;-7.78;82.38;100408.95;87816;1284;99579;-68
2021/12/26 07:13:58;;;;;;;50.80;20.70;;;;;;;-7.71;82.29;100410.73;87792;1285;87885;-67
2021/12/26 07:16:08;;;;;;;49.40;23.10;;;;;;;-7.67;82.18;100416.07;87571;1285;94272;-68
2021/12/26 07:18:18;;;;;;;50.40;21.10;;;;;;;-7.55;82.41;100417.60;87794;1281;80821;-67
2021/12/26 07:20:28;;;;;;;48.40;20.80;;;;;;;-7.48;82.51;100417.06;87782;1284;81744;-65
2021/12/26 07:22:42;;;;;;;50.80;22.60;;;;;;;-7.39;82.43;100413.81;87794;1283;100074;-66
2021/12/26 07:24:53;;;;;;;42.90;21.20;;;;;;;-7.34;82.32;100415.31;87828;1283;86756;-64
2021/12/26 07:27:04;;;;;;;47.60;20.20;;;;;;;-7.24;82.23;100416.38;87777;1279;94503;-62
2021/12/26 07:29:14;;;;;;;48.70;21.10;;;;;;;-7.14;82.20;100414.32;87809;1283;81900;-61
2021/12/26 07:31:23;;;;;;;44.90;20.40;;;;;;;-7.06;82.04;100423.17;87838;1287;82576;-60
2021/12/26 07:33:33;;;;;;;44.20;20.50;;;;;;;-6.98;82.18;100429.60;87772;1283;99480;-60
2021/12/26 07:35:43;;;;;;;41.90;19.50;;;;;;;-6.95;82.03;100433.08;87812;1283;86800;-66
2021/12/26 07:37:55;;;;;;;44.30;18.90;;;;;;;-6.85;82.22;100437.64;87790;1283;92382;-66
2021/12/26 07:40:07;;;;;;;47.00;21.20;;;;;;;-6.79;82.02;100435.58;87792;1283;79718;-64
2021/12/26 07:42:17;;;;;;;40.10;18.80;;;;;;;-6.73;82.14;100436.48;87808;1283;80299;-65
2021/12/26 07:44:27;;;;;;;41.50;18.90;;;;;;;-6.66;82.23;100433.11;87817;1280;97639;-64
2021/12/26 07:46:36;;;;;;;45.70;20.70;;;;;;;-6.56;82.14;100429.47;87628;1286;86347;-62
2021/12/26 07:48:46;;;;;;;39.30;17.40;;;;;;;-6.44;82.18;100426.02;87768;1283;95192;-64
2021/12/26 07:50:56;;;;;;;36.90;16.40;;;;;;;-6.35;82.01;100421.83;87774;1280;79854;-66
2021/12/26 07:53:09;;;;;;;33.40;17.60;;;;;;;-6.30;82.33;100424.72;87799;1287;80806;-65
2021/12/26 07:55:18;;;;;;;41.00;16.10;;;;;;;-6.22;82.36;100426.76;87790;1283;99742;-61
2021/12/26 07:57:28;;;;;;;38.20;16.50;;;;;;;-6.16;82.53;100425.70;87794;1284;88413;-61
2021/12/26 07:59:38;;;;;;;36.00;17.50;;;;;;;-6.08;82.31;100425.98;87820;1287;93885;-62
2021/12/26 08:01:48;;;;;;;31.70;15.80;;;;;;;-6.01;82.49;100425.91;87641;1283;79798;-62
2021/12/26 08:04:02;;;;;;;34.00;16.20;;;;;;;-5.91;82.51;100429.75;87824;1284;80551;-63
2021/12/26 08:06:16;;;;;;;36.60;16.00;;;;;;;-5.82;82.31;100430.80;87820;1281;98339;-64
2021/12/26 08:08:25;;;;;;;38.50;17.90;;;;;;;-5.68;82.40;100432.61;87813;1283;88217;-64
2021/12/26 08:10:34;;;;;;;38.50;17.80;;;;;;;-5.62;82.13;100434.00;87813;1282;94206;-67
2021/12/26 08:12:44;;;;;;;44.30;19.80;;;;;;;-5.48;82.35;100434.27;87823;1283;80331;-65
2021/12/26 08:14:59;;;;;;;39.00;17.60;;;;;;;-5.39;82.23;100441.82;87819;1287;81480;-62
2021/12/26 08:17:09;;;;;;;43.20;19.80;;;;;;;-5.30;82.20;100443.63;87770;1284;99449;-62
2021/12/26 08:19:18;;;;;;;44.60;20.00;;;;;;;-5.24;82.05;100447.14;87814;1287;89245;-61
2021/12/26 08:21:28;;;;;;;50.30;22.30;;;;;;;-5.21;82.08;100442.89;87790;1287;93411;-61
2021/12/26 08:23:44;;;;;;;47.20;21.60;;;;;;;-5.16;81.68;100442.61;87818;1284;79190;-61
2021/12/26 08:25:52;;;;;;;49.00;22.10;;;;;;;-5.19;81.60;100445.91;87810;1280;81541;-65
2021/12/26 08:28:02;;;;;;;53.30;22.90;;;;;;;-5.21;81.60;100448.15;87761;1283;98972;-65
2021/12/26 08:30:15;;;;;;;50.30;22.00;;;;;;;-5.20;81.42;100452.99;87810;1281;87880;-65
2021/12/26 08:32:24;;;;;;;48.30;23.20;;;;;;;-5.09;81.45;100454.84;87787;1284;95457;-66
2021/12/26 08:34:34;;;;;;;49.00;23.50;;;;;;;-4.92;81.33;100454.88;87833;1280;79590;-65
2021/12/26 08:36:48;;;;;;;43.40;23.00;;;;;;;-4.82;80.70;100455.99;87779;1284;82486;-68
2021/12/26 08:38:55;;;;;;;;;;;;;;;-4.81;80.65;100457.19;87781;1287;98905;-67
2021/12/26 08:41:09;;;;;;;46.40;21.10;;;;;;;-4.78;80.57;100455.23;87784;1283;87484;-60
2021/12/26 08:43:16;;;;;;;;;;;;;;;-4.71;80.39;100454.67;87510;1286;95012;-61
2021/12/26 08:45:27;;;;;;;42.50;20.60;;;;;;;-4.61;80.36;100451.41;87796;1280;79547;-61
2021/12/26 08:47:41;;;;;;;48.10;22.50;;;;;;;-4.51;80.32;100455.54;87795;1283;82016;-62
2021/12/26 08:49:51;;;;;;;45.20;21.90;;;;;;;-4.43;80.00;100455.20;87782;1284;99754;-70
2021/12/26 08:52:02;;;;;;;46.20;21.90;;;;;;;-4.45;79.82;100460.06;87807;1283;88045;-68
2021/12/26 08:54:11;;;;;;;42.10;21.60;;;;;;;-4.42;79.81;100463.59;87797;1283;94975;-66
2021/12/26 08:56:21;;;;;;;49.50;23.00;;;;;;;-4.38;79.78;100467.40;87777;1280;76838;-66
2021/12/26 08:58:31;;;;;;;41.50;21.70;;;;;;;-4.36;79.91;100466.90;87816;1283;82097;-65
2021/12/26 09:00:41;;;;;;;49.90;23.30;;;;;;;-4.20;79.72;100471.70;87858;1287;98240;-65
2021/12/26 09:02:53;;;;;;;45.90;23.00;;;;;;;-4.25;79.78;100471.45;87808;1283;87737;-64
2021/12/26 09:05:07;;;;;;;48.80;23.80;;;;;;;-4.30;79.33;100471.27;87798;1283;94441;-68
2021/12/26 09:07:21;;;;;;;46.00;23.20;;;;;;;-4.36;79.39;100476.92;87804;1282;77973;-67
2021/12/26 09:09:30;;;;;;;35.80;19.00;;;;;;;-4.49;79.44;100479.45;87807;1285;82053;-63
2021/12/26 09:11:41;;;;;;;47.40;23.40;;;;;;;-4.48;79.18;100476.30;87819;1287;99304;-65
2021/12/26 09:13:50;;;;;;;47.70;22.70;;;;;;;-4.56;79.52;100478.35;87813;1280;87573;-63
2021/12/26 09:16:03;;;;;;;46.90;23.20;;;;;;;-4.58;79.20;100473.34;87777;1284;95182;-59
2021/12/26 09:18:12;;;;;;;50.70;23.90;;;;;;;-4.63;79.21;100470.17;87783;1287;78279;-59
2021/12/26 09:20:24;;;;;;;47.60;23.60;;;;;;;-4.58;79.04;100462.98;87806;1283;82242;-60
2021/12/26 09:22:36;;;;;;;46.20;22.90;;;;;;;-4.57;78.65;100462.42;87559;1279;97913;-63
2021/12/26 09:24:48;;;;;;;51.60;25.20;;;;;;;-4.63;78.79;100460.63;87560;1285;87822;-59
2021/12/26 09:27:05;;;;;;;49.80;24.10;;;;;;;-4.56;78.88;100460.41;87654;1281;92535;-67
2021/12/26 09:29:15;;;;;;;46.90;24.00;;;;;;;-4.24;78.81;100456.31;88226;1279;78475;-62
2021/12/26 09:31:24;;;;;;;49.20;25.20;;;;;;;-3.77;78.60;100452.60;87623;1286;82991;-59
2021/12/26 09:33:33;;;;;;;47.10;23.40;;;;;;;-3.34;77.77;100454.55;87646;1286;99307;-60
2021/12/26 09:35:44;;;;;;;44.10;22.50;;;;;;;-3.00;77.29;100450.36;87649;1286;89317;-59
2021/12/26 09:37:56;;;;;;;49.70;24.70;;;;;;;-2.66;77.11;100453.84;87692;1283;94283;-60
2021/12/26 09:40:07;;;;;;;51.10;25.20;;;;;;;-2.56;75.49;100454.07;87755;1281;77061;-66
2021/12/26 09:42:17;;;;;;;47.20;24.20;;;;;;;-2.81;75.98;100457.02;88211;1283;82666;-66
2021/12/26 09:44:29;;;;;;;41.20;23.90;;;;;;;-3.08;76.14;100462.52;87771;1284;99281;-67
2021/12/26 09:46:39;;;;;;;49.00;24.00;;;;;;;-3.18;76.15;100460.54;87823;1280;89218;-63
2021/12/26 09:48:49;;;;;;;44.10;23.60;;;;;;;-3.06;76.08;100458.13;87802;1282;95833;-64
2021/12/26 09:50:58;;;;;;;47.60;24.10;;;;;;;-2.76;75.94;100459.33;87767;1284;78835;-59
2021/12/26 09:53:11;;;;;;;44.10;23.80;;;;;;;-2.55;75.68;100459.80;87804;1282;82964;-60
2021/12/26 09:55:30;;;;;;;45.00;24.70;;;;;;;-2.64;75.31;100467.27;87845;1279;97259;-69
2021/12/26 09:57:39;;;;;;;48.10;25.60;;;;;;;-2.48;75.58;100473.75;87790;1282;89119;-68